sensor_id;sensor_type;location;lat;lon;timestamp;P1;durP1;ratioP1;P2;durP2;ratioP2
51810;SDS011;52468;40.116;18.296;2022-09-09T00:01:17;19.53;;;8.60;;
51810;SDS011;52468;40.116;18.296;2022-09-09T00:04:09;12.23;;;8.17;;
51810;SDS011;52468;40.116;18.296;2022-09-09T00:09:58;16.63;;;9.03;;
51810;SDS011;52468;40.116;18.296;2022-09-09T00:14:56;23.80;;;8.30;;
51810;SDS011;52468;40.116;18.296;2022-09-09T00:22:46;17.13;;;7.90;;
51810;SDS011;52468;40.116;18.296;2022-09-09T00:25:26;14.83;;;7.37;;
51810;SDS011;52468;40.116;18.296;2022-09-09T00:27:55;20.30;;;8.50;;
51810;SDS011;52468;40.116;18.296;2022-09-09T00:30:24;13.80;;;7.53;;
51810;SDS011;52468;40.116;18.296;2022-09-09T00:32:55;21.70;;;7.30;;
51810;SDS011;52468;40.116;18.296;2022-09-09T00:38:01;15.27;;;7.53;;
51810;SDS011;52468;40.116;18.296;2022-09-09T00:43:28;15.10;;;7.67;;
51810;SDS011;52468;40.116;18.296;2022-09-09T00:51:56;14.03;;;7.60;;
51810;SDS011;52468;40.116;18.296;2022-09-09T01:02:51;15.73;;;8.57;;
51810;SDS011;52468;40.116;18.296;2022-09-09T01:05:30;24.60;;;8.30;;
51810;SDS011;52468;40.116;18.296;2022-09-09T01:11:03;16.60;;;8.40;;
51810;SDS011;52468;40.116;18.296;2022-09-09T01:13:32;17.27;;;7.07;;
51810;SDS011;52468;40.116;18.296;2022-09-09T01:16:07;15.70;;;8.50;;
51810;SDS011;52468;40.116;18.296;2022-09-09T01:18:43;20.10;;;7.73;;
51810;SDS011;52468;40.116;18.296;2022-09-09T01:27:12;20.10;;;8.90;;
51810;SDS011;52468;40.116;18.296;2022-09-09T01:29:42;17.03;;;8.53;;
51810;SDS011;52468;40.116;18.296;2022-09-09T01:35:31;13.53;;;7.47;;
51810;SDS011;52468;40.116;18.296;2022-09-09T01:38:07;23.50;;;8.27;;
51810;SDS011;52468;40.116;18.296;2022-09-09T01:40:37;17.93;;;7.77;;
51810;SDS011;52468;40.116;18.296;2022-09-09T01:43:06;13.10;;;9.10;;
51810;SDS011;52468;40.116;18.296;2022-09-09T01:45:35;19.13;;;8.70;;
51810;SDS011;52468;40.116;18.296;2022-09-09T01:48:03;14.40;;;8.40;;
51810;SDS011;52468;40.116;18.296;2022-09-09T01:50:41;11.73;;;7.43;;
51810;SDS011;52468;40.116;18.296;2022-09-09T01:53:10;14.37;;;7.93;;
51810;SDS011;52468;40.116;18.296;2022-09-09T01:55:40;13.63;;;8.50;;
51810;SDS011;52468;40.116;18.296;2022-09-09T01:58:28;14.57;;;7.33;;
51810;SDS011;52468;40.116;18.296;2022-09-09T02:01:02;10.27;;;7.20;;
51810;SDS011;52468;40.116;18.296;2022-09-09T02:03:36;15.07;;;7.17;;
51810;SDS011;52468;40.116;18.296;2022-09-09T02:09:24;16.07;;;8.57;;
51810;SDS011;52468;40.116;18.296;2022-09-09T02:12:28;16.13;;;7.53;;
51810;SDS011;52468;40.116;18.296;2022-09-09T02:15:03;15.07;;;7.50;;
51810;SDS011;52468;40.116;18.296;2022-09-09T02:17:44;18.53;;;8.53;;
51810;SDS011;52468;40.116;18.296;2022-09-09T02:20:16;16.58;;;8.90;;
51810;SDS011;52468;40.116;18.296;2022-09-09T02:22:54;22.50;;;7.40;;
51810;SDS011;52468;40.116;18.296;2022-09-09T02:25:26;22.97;;;9.13;;
51810;SDS011;52468;40.116;18.296;2022-09-09T02:28:06;18.10;;;8.67;;
51810;SDS011;52468;40.116;18.296;2022-09-09T02:30:37;18.73;;;8.87;;
51810;SDS011;52468;40.116;18.296;2022-09-09T02:33:08;17.73;;;8.80;;
51810;SDS011;52468;40.116;18.296;2022-09-09T02:35:45;17.07;;;9.87;;
51810;SDS011;52468;40.116;18.296;2022-09-09T02:38:18;15.60;;;8.02;;
51810;SDS011;52468;40.116;18.296;2022-09-09T02:40:59;13.83;;;8.60;;
51810;SDS011;52468;40.116;18.296;2022-09-09T02:43:34;16.67;;;8.80;;
51810;SDS011;52468;40.116;18.296;2022-09-09T02:46:24;21.73;;;8.30;;
51810;SDS011;52468;40.116;18.296;2022-09-09T02:49:16;10.97;;;8.10;;
51810;SDS011;52468;40.116;18.296;2022-09-09T02:54:39;18.17;;;9.10;;
51810;SDS011;52468;40.116;18.296;2022-09-09T02:57:23;16.90;;;7.87;;
51810;SDS011;52468;40.116;18.296;2022-09-09T02:59:56;14.63;;;8.47;;
51810;SDS011;52468;40.116;18.296;2022-09-09T03:02:25;15.30;;;7.33;;
51810;SDS011;52468;40.116;18.296;2022-09-09T03:05:00;14.67;;;7.00;;
51810;SDS011;52468;40.116;18.296;2022-09-09T03:07:28;16.90;;;7.17;;
51810;SDS011;52468;40.116;18.296;2022-09-09T03:09:56;17.80;;;7.87;;
51810;SDS011;52468;40.116;18.296;2022-09-09T03:12:27;13.43;;;6.60;;
51810;SDS011;52468;40.116;18.296;2022-09-09T03:14:55;19.13;;;7.00;;
51810;SDS011;52468;40.116;18.296;2022-09-09T03:17:24;12.27;;;7.43;;
51810;SDS011;52468;40.116;18.296;2022-09-09T03:19:54;13.90;;;7.63;;
51810;SDS011;52468;40.116;18.296;2022-09-09T03:22:22;12.00;;;5.73;;
51810;SDS011;52468;40.116;18.296;2022-09-09T03:24:50;20.77;;;7.87;;
51810;SDS011;52468;40.116;18.296;2022-09-09T03:27:18;13.37;;;7.10;;
51810;SDS011;52468;40.116;18.296;2022-09-09T03:29:47;13.37;;;8.03;;
51810;SDS011;52468;40.116;18.296;2022-09-09T03:32:22;16.73;;;7.23;;
51810;SDS011;52468;40.116;18.296;2022-09-09T03:34:51;13.10;;;7.43;;
51810;SDS011;52468;40.116;18.296;2022-09-09T03:37:19;12.20;;;6.60;;
51810;SDS011;52468;40.116;18.296;2022-09-09T03:39:49;13.53;;;7.87;;
51810;SDS011;52468;40.116;18.296;2022-09-09T03:42:18;9.07;;;6.37;;
51810;SDS011;52468;40.116;18.296;2022-09-09T03:44:50;7.23;;;5.30;;
51810;SDS011;52468;40.116;18.296;2022-09-09T03:47:21;8.70;;;5.90;;
51810;SDS011;52468;40.116;18.296;2022-09-09T03:49:54;13.38;;;6.85;;
51810;SDS011;52468;40.116;18.296;2022-09-09T03:52:22;20.47;;;7.80;;
51810;SDS011;52468;40.116;18.296;2022-09-09T03:54:53;12.30;;;6.87;;
51810;SDS011;52468;40.116;18.296;2022-09-09T03:57:21;9.53;;;6.37;;
51810;SDS011;52468;40.116;18.296;2022-09-09T03:59:50;24.63;;;8.30;;
51810;SDS011;52468;40.116;18.296;2022-09-09T04:02:17;18.20;;;8.00;;
51810;SDS011;52468;40.116;18.296;2022-09-09T04:04:45;14.00;;;7.37;;
51810;SDS011;52468;40.116;18.296;2022-09-09T04:07:14;11.63;;;6.83;;
51810;SDS011;52468;40.116;18.296;2022-09-09T04:09:43;12.57;;;6.47;;
51810;SDS011;52468;40.116;18.296;2022-09-09T04:12:11;13.73;;;6.90;;
51810;SDS011;52468;40.116;18.296;2022-09-09T04:14:41;11.07;;;7.53;;
51810;SDS011;52468;40.116;18.296;2022-09-09T04:17:09;15.20;;;6.13;;
51810;SDS011;52468;40.116;18.296;2022-09-09T04:19:37;11.97;;;6.57;;
51810;SDS011;52468;40.116;18.296;2022-09-09T04:22:06;14.70;;;7.23;;
51810;SDS011;52468;40.116;18.296;2022-09-09T04:24:33;9.17;;;6.10;;
51810;SDS011;52468;40.116;18.296;2022-09-09T04:27:02;19.77;;;8.33;;
51810;SDS011;52468;40.116;18.296;2022-09-09T04:29:32;12.63;;;6.30;;
51810;SDS011;52468;40.116;18.296;2022-09-09T04:32:01;10.00;;;5.30;;
51810;SDS011;52468;40.116;18.296;2022-09-09T04:34:29;9.63;;;6.30;;
51810;SDS011;52468;40.116;18.296;2022-09-09T04:36:58;19.23;;;7.07;;
51810;SDS011;52468;40.116;18.296;2022-09-09T04:39:28;20.90;;;6.97;;
51810;SDS011;52468;40.116;18.296;2022-09-09T04:41:58;13.50;;;6.93;;
51810;SDS011;52468;40.116;18.296;2022-09-09T04:44:26;13.20;;;6.07;;
51810;SDS011;52468;40.116;18.296;2022-09-09T04:46:54;15.60;;;8.20;;
51810;SDS011;52468;40.116;18.296;2022-09-09T04:49:22;13.60;;;6.83;;
51810;SDS011;52468;40.116;18.296;2022-09-09T04:51:51;13.90;;;8.27;;
51810;SDS011;52468;40.116;18.296;2022-09-09T04:54:19;8.97;;;6.00;;
51810;SDS011;52468;40.116;18.296;2022-09-09T04:56:47;12.53;;;6.13;;
51810;SDS011;52468;40.116;18.296;2022-09-09T04:59:16;15.70;;;6.23;;
51810;SDS011;52468;40.116;18.296;2022-09-09T05:01:47;9.37;;;5.43;;
51810;SDS011;52468;40.116;18.296;2022-09-09T05:04:18;13.43;;;7.50;;
51810;SDS011;52468;40.116;18.296;2022-09-09T05:06:46;9.77;;;5.83;;
51810;SDS011;52468;40.116;18.296;2022-09-09T05:09:14;11.87;;;6.57;;
51810;SDS011;52468;40.116;18.296;2022-09-09T05:11:44;15.47;;;6.23;;
51810;SDS011;52468;40.116;18.296;2022-09-09T05:14:23;10.57;;;5.93;;
51810;SDS011;52468;40.116;18.296;2022-09-09T05:16:51;9.17;;;5.10;;
51810;SDS011;52468;40.116;18.296;2022-09-09T05:19:21;9.80;;;5.00;;
51810;SDS011;52468;40.116;18.296;2022-09-09T05:21:51;9.10;;;5.47;;
51810;SDS011;52468;40.116;18.296;2022-09-09T05:24:29;11.53;;;5.43;;
51810;SDS011;52468;40.116;18.296;2022-09-09T05:27:00;9.13;;;5.37;;
51810;SDS011;52468;40.116;18.296;2022-09-09T05:29:29;9.13;;;5.47;;
51810;SDS011;52468;40.116;18.296;2022-09-09T05:32:02;13.65;;;5.65;;
51810;SDS011;52468;40.116;18.296;2022-09-09T05:34:31;21.40;;;5.33;;
51810;SDS011;52468;40.116;18.296;2022-09-09T05:37:00;12.97;;;5.83;;
51810;SDS011;52468;40.116;18.296;2022-09-09T05:39:27;11.80;;;5.23;;
51810;SDS011;52468;40.116;18.296;2022-09-09T05:41:56;11.33;;;5.20;;
51810;SDS011;52468;40.116;18.296;2022-09-09T05:44:24;12.90;;;5.13;;
51810;SDS011;52468;40.116;18.296;2022-09-09T05:46:55;13.67;;;4.57;;
51810;SDS011;52468;40.116;18.296;2022-09-09T05:49:22;10.13;;;4.93;;
51810;SDS011;52468;40.116;18.296;2022-09-09T05:51:51;10.63;;;5.20;;
51810;SDS011;52468;40.116;18.296;2022-09-09T05:54:20;13.50;;;4.93;;
51810;SDS011;52468;40.116;18.296;2022-09-09T05:56:51;11.15;;;5.13;;
51810;SDS011;52468;40.116;18.296;2022-09-09T05:59:20;8.60;;;4.05;;
51810;SDS011;52468;40.116;18.296;2022-09-09T06:01:53;16.23;;;5.00;;
51810;SDS011;52468;40.116;18.296;2022-09-09T06:04:27;13.00;;;4.90;;
51810;SDS011;52468;40.116;18.296;2022-09-09T06:06:56;11.60;;;5.68;;
51810;SDS011;52468;40.116;18.296;2022-09-09T06:09:24;8.18;;;5.07;;
51810;SDS011;52468;40.116;18.296;2022-09-09T06:11:52;8.55;;;4.40;;
51810;SDS011;52468;40.116;18.296;2022-09-09T06:14:22;8.13;;;4.45;;
51810;SDS011;52468;40.116;18.296;2022-09-09T06:16:52;18.13;;;5.25;;
51810;SDS011;52468;40.116;18.296;2022-09-09T06:19:23;10.75;;;4.60;;
51810;SDS011;52468;40.116;18.296;2022-09-09T06:21:55;8.82;;;4.65;;
51810;SDS011;52468;40.116;18.296;2022-09-09T06:24:23;11.38;;;5.10;;
51810;SDS011;52468;40.116;18.296;2022-09-09T06:26:52;9.60;;;4.72;;
51810;SDS011;52468;40.116;18.296;2022-09-09T06:29:26;13.07;;;6.13;;
51810;SDS011;52468;40.116;18.296;2022-09-09T06:31:53;13.00;;;5.43;;
51810;SDS011;52468;40.116;18.296;2022-09-09T06:34:24;10.68;;;4.20;;
51810;SDS011;52468;40.116;18.296;2022-09-09T06:36:57;10.23;;;4.78;;
51810;SDS011;52468;40.116;18.296;2022-09-09T06:39:31;11.98;;;4.90;;
51810;SDS011;52468;40.116;18.296;2022-09-09T06:41:59;14.57;;;5.38;;
51810;SDS011;52468;40.116;18.296;2022-09-09T06:44:59;10.35;;;4.32;;
51810;SDS011;52468;40.116;18.296;2022-09-09T06:47:40;8.57;;;4.55;;
51810;SDS011;52468;40.116;18.296;2022-09-09T06:50:09;13.82;;;4.70;;
51810;SDS011;52468;40.116;18.296;2022-09-09T06:52:39;11.48;;;4.72;;
51810;SDS011;52468;40.116;18.296;2022-09-09T06:55:08;11.35;;;5.00;;
51810;SDS011;52468;40.116;18.296;2022-09-09T06:57:37;10.52;;;4.70;;
51810;SDS011;52468;40.116;18.296;2022-09-09T07:00:11;13.85;;;4.88;;
51810;SDS011;52468;40.116;18.296;2022-09-09T07:02:41;15.77;;;4.68;;
51810;SDS011;52468;40.116;18.296;2022-09-09T07:05:10;7.95;;;4.78;;
51810;SDS011;52468;40.116;18.296;2022-09-09T07:07:40;16.05;;;4.88;;
51810;SDS011;52468;40.116;18.296;2022-09-09T07:10:09;10.02;;;5.05;;
51810;SDS011;52468;40.116;18.296;2022-09-09T07:12:37;16.90;;;5.63;;
51810;SDS011;52468;40.116;18.296;2022-09-09T07:15:08;14.35;;;4.75;;
51810;SDS011;52468;40.116;18.296;2022-09-09T07:17:40;10.80;;;4.90;;
51810;SDS011;52468;40.116;18.296;2022-09-09T07:20:08;7.65;;;4.85;;
51810;SDS011;52468;40.116;18.296;2022-09-09T07:22:36;10.93;;;4.60;;
51810;SDS011;52468;40.116;18.296;2022-09-09T07:25:04;9.38;;;4.38;;
51810;SDS011;52468;40.116;18.296;2022-09-09T07:27:33;11.30;;;4.28;;
51810;SDS011;52468;40.116;18.296;2022-09-09T07:30:01;12.10;;;4.65;;
51810;SDS011;52468;40.116;18.296;2022-09-09T07:32:32;8.32;;;4.20;;
51810;SDS011;52468;40.116;18.296;2022-09-09T07:35:01;10.30;;;4.53;;
51810;SDS011;52468;40.116;18.296;2022-09-09T07:37:28;11.38;;;3.80;;
51810;SDS011;52468;40.116;18.296;2022-09-09T07:39:57;10.70;;;3.70;;
51810;SDS011;52468;40.116;18.296;2022-09-09T07:42:25;8.18;;;3.83;;
51810;SDS011;52468;40.116;18.296;2022-09-09T07:44:53;6.32;;;3.85;;
51810;SDS011;52468;40.116;18.296;2022-09-09T07:47:23;9.70;;;4.22;;
51810;SDS011;52468;40.116;18.296;2022-09-09T07:49:51;17.15;;;5.18;;
51810;SDS011;52468;40.116;18.296;2022-09-09T07:52:25;9.82;;;4.03;;
51810;SDS011;52468;40.116;18.296;2022-09-09T07:54:59;8.85;;;3.90;;
51810;SDS011;52468;40.116;18.296;2022-09-09T07:57:30;12.23;;;5.53;;
51810;SDS011;52468;40.116;18.296;2022-09-09T07:59:58;6.65;;;3.67;;
51810;SDS011;52468;40.116;18.296;2022-09-09T08:02:28;9.77;;;4.88;;
51810;SDS011;52468;40.116;18.296;2022-09-09T08:04:58;9.98;;;5.35;;
51810;SDS011;52468;40.116;18.296;2022-09-09T08:07:26;10.60;;;4.93;;
51810;SDS011;52468;40.116;18.296;2022-09-09T08:09:54;9.38;;;5.10;;
51810;SDS011;52468;40.116;18.296;2022-09-09T08:12:27;12.95;;;4.32;;
51810;SDS011;52468;40.116;18.296;2022-09-09T08:14:56;7.03;;;4.25;;
51810;SDS011;52468;40.116;18.296;2022-09-09T08:17:29;8.57;;;3.90;;
51810;SDS011;52468;40.116;18.296;2022-09-09T08:20:02;11.18;;;3.75;;
51810;SDS011;52468;40.116;18.296;2022-09-09T08:22:34;10.95;;;4.22;;
51810;SDS011;52468;40.116;18.296;2022-09-09T08:25:02;8.93;;;4.95;;
51810;SDS011;52468;40.116;18.296;2022-09-09T08:27:35;13.73;;;3.80;;
51810;SDS011;52468;40.116;18.296;2022-09-09T08:30:04;19.38;;;5.20;;
51810;SDS011;52468;40.116;18.296;2022-09-09T08:32:32;7.63;;;3.95;;
51810;SDS011;52468;40.116;18.296;2022-09-09T08:35:02;10.93;;;5.93;;
51810;SDS011;52468;40.116;18.296;2022-09-09T08:37:34;9.05;;;5.30;;
51810;SDS011;52468;40.116;18.296;2022-09-09T08:40:01;10.35;;;4.82;;
51810;SDS011;52468;40.116;18.296;2022-09-09T08:55:56;13.82;;;5.30;;
51810;SDS011;52468;40.116;18.296;2022-09-09T08:58:38;12.73;;;4.63;;
51810;SDS011;52468;40.116;18.296;2022-09-09T09:16:22;12.57;;;4.53;;
51810;SDS011;52468;40.116;18.296;2022-09-09T09:19:00;14.32;;;4.55;;
51810;SDS011;52468;40.116;18.296;2022-09-09T09:23:59;8.15;;;3.90;;
51810;SDS011;52468;40.116;18.296;2022-09-09T09:26:32;20.90;;;4.97;;
51810;SDS011;52468;40.116;18.296;2022-09-09T09:29:09;14.00;;;4.28;;
51810;SDS011;52468;40.116;18.296;2022-09-09T09:31:45;15.13;;;4.10;;
51810;SDS011;52468;40.116;18.296;2022-09-09T09:34:15;11.45;;;4.43;;
51810;SDS011;52468;40.116;18.296;2022-09-09T09:36:46;14.50;;;5.05;;
51810;SDS011;52468;40.116;18.296;2022-09-09T09:39:32;12.00;;;3.97;;
51810;SDS011;52468;40.116;18.296;2022-09-09T09:42:25;15.90;;;5.45;;
51810;SDS011;52468;40.116;18.296;2022-09-09T09:44:56;14.75;;;4.93;;
51810;SDS011;52468;40.116;18.296;2022-09-09T09:47:34;13.38;;;5.75;;
51810;SDS011;52468;40.116;18.296;2022-09-09T09:50:17;10.57;;;3.95;;
51810;SDS011;52468;40.116;18.296;2022-09-09T09:52:54;13.20;;;4.80;;
51810;SDS011;52468;40.116;18.296;2022-09-09T09:55:34;14.00;;;4.35;;
51810;SDS011;52468;40.116;18.296;2022-09-09T09:58:04;10.85;;;4.75;;
51810;SDS011;52468;40.116;18.296;2022-09-09T10:00:35;16.02;;;4.55;;
51810;SDS011;52468;40.116;18.296;2022-09-09T10:03:24;19.83;;;5.80;;
51810;SDS011;52468;40.116;18.296;2022-09-09T10:05:59;12.40;;;4.55;;
51810;SDS011;52468;40.116;18.296;2022-09-09T10:08:27;10.05;;;4.22;;
51810;SDS011;52468;40.116;18.296;2022-09-09T10:11:02;11.25;;;4.05;;
51810;SDS011;52468;40.116;18.296;2022-09-09T10:13:38;13.45;;;3.90;;
51810;SDS011;52468;40.116;18.296;2022-09-09T10:18:58;15.98;;;4.30;;
51810;SDS011;52468;40.116;18.296;2022-09-09T10:27:20;12.40;;;3.90;;
51810;SDS011;52468;40.116;18.296;2022-09-09T10:41:13;17.98;;;4.90;;
51810;SDS011;52468;40.116;18.296;2022-09-09T10:46:59;11.55;;;5.22;;
51810;SDS011;52468;40.116;18.296;2022-09-09T10:52:37;14.43;;;4.70;;
51810;SDS011;52468;40.116;18.296;2022-09-09T10:55:19;16.27;;;4.38;;
51810;SDS011;52468;40.116;18.296;2022-09-09T10:57:56;11.65;;;4.50;;
51810;SDS011;52468;40.116;18.296;2022-09-09T11:00:47;14.90;;;5.57;;
51810;SDS011;52468;40.116;18.296;2022-09-09T11:03:26;12.20;;;4.75;;
51810;SDS011;52468;40.116;18.296;2022-09-09T11:06:02;15.80;;;3.83;;
51810;SDS011;52468;40.116;18.296;2022-09-09T11:08:31;9.15;;;3.67;;
51810;SDS011;52468;40.116;18.296;2022-09-09T11:11:17;17.65;;;5.05;;
51810;SDS011;52468;40.116;18.296;2022-09-09T11:14:05;8.20;;;4.13;;
51810;SDS011;52468;40.116;18.296;2022-09-09T11:17:11;15.57;;;5.20;;
51810;SDS011;52468;40.116;18.296;2022-09-09T11:19:45;14.02;;;3.92;;
51810;SDS011;52468;40.116;18.296;2022-09-09T11:36:13;13.38;;;4.32;;
51810;SDS011;52468;40.116;18.296;2022-09-09T11:40:04;11.60;;;4.40;;
51810;SDS011;52468;40.116;18.296;2022-09-09T11:44:46;17.58;;;3.90;;
51810;SDS011;52468;40.116;18.296;2022-09-09T11:47:22;14.20;;;4.53;;
51810;SDS011;52468;40.116;18.296;2022-09-09T11:55:40;11.27;;;4.60;;
51810;SDS011;52468;40.116;18.296;2022-09-09T12:00:43;14.65;;;5.22;;
51810;SDS011;52468;40.116;18.296;2022-09-09T12:09:09;14.88;;;4.70;;
51810;SDS011;52468;40.116;18.296;2022-09-09T12:11:52;15.90;;;5.45;;
51810;SDS011;52468;40.116;18.296;2022-09-09T12:14:35;13.93;;;5.40;;
51810;SDS011;52468;40.116;18.296;2022-09-09T12:17:25;19.23;;;6.53;;
51810;SDS011;52468;40.116;18.296;2022-09-09T12:28:17;18.33;;;5.72;;
51810;SDS011;52468;40.116;18.296;2022-09-09T12:33:36;13.68;;;4.78;;
51810;SDS011;52468;40.116;18.296;2022-09-09T12:36:06;12.00;;;4.23;;
51810;SDS011;52468;40.116;18.296;2022-09-09T12:38:43;11.88;;;5.03;;
51810;SDS011;52468;40.116;18.296;2022-09-09T12:41:22;16.52;;;5.28;;
51810;SDS011;52468;40.116;18.296;2022-09-09T12:43:51;12.18;;;4.88;;
51810;SDS011;52468;40.116;18.296;2022-09-09T12:46:37;11.35;;;4.97;;
51810;SDS011;52468;40.116;18.296;2022-09-09T12:49:24;12.82;;;5.32;;
51810;SDS011;52468;40.116;18.296;2022-09-09T12:51:53;12.23;;;5.18;;
51810;SDS011;52468;40.116;18.296;2022-09-09T12:54:21;11.65;;;5.43;;
51810;SDS011;52468;40.116;18.296;2022-09-09T12:56:50;16.85;;;5.55;;
51810;SDS011;52468;40.116;18.296;2022-09-09T12:59:35;11.73;;;4.97;;
51810;SDS011;52468;40.116;18.296;2022-09-09T13:02:15;10.95;;;5.75;;
51810;SDS011;52468;40.116;18.296;2022-09-09T13:04:49;14.25;;;5.60;;
51810;SDS011;52468;40.116;18.296;2022-09-09T13:07:18;11.43;;;5.40;;
51810;SDS011;52468;40.116;18.296;2022-09-09T13:09:47;16.08;;;5.97;;
51810;SDS011;52468;40.116;18.296;2022-09-09T13:12:17;17.35;;;4.93;;
51810;SDS011;52468;40.116;18.296;2022-09-09T13:14:48;12.50;;;5.03;;
51810;SDS011;52468;40.116;18.296;2022-09-09T13:17:25;18.85;;;5.15;;
51810;SDS011;52468;40.116;18.296;2022-09-09T13:19:56;15.32;;;4.38;;
51810;SDS011;52468;40.116;18.296;2022-09-09T13:22:37;12.57;;;5.13;;
51810;SDS011;52468;40.116;18.296;2022-09-09T13:27:40;17.00;;;4.82;;
51810;SDS011;52468;40.116;18.296;2022-09-09T13:33:03;15.85;;;5.97;;
51810;SDS011;52468;40.116;18.296;2022-09-09T13:35:52;18.20;;;5.95;;
51810;SDS011;52468;40.116;18.296;2022-09-09T13:38:23;15.05;;;5.82;;
51810;SDS011;52468;40.116;18.296;2022-09-09T13:40:54;12.75;;;5.43;;
51810;SDS011;52468;40.116;18.296;2022-09-09T13:43:31;15.90;;;5.03;;
51810;SDS011;52468;40.116;18.296;2022-09-09T13:46:06;14.73;;;5.90;;
51810;SDS011;52468;40.116;18.296;2022-09-09T13:49:00;16.77;;;5.45;;
51810;SDS011;52468;40.116;18.296;2022-09-09T13:51:38;18.33;;;5.80;;
51810;SDS011;52468;40.116;18.296;2022-09-09T13:54:18;13.95;;;5.53;;
51810;SDS011;52468;40.116;18.296;2022-09-09T13:56:47;17.48;;;5.82;;
51810;SDS011;52468;40.116;18.296;2022-09-09T13:59:18;12.68;;;5.47;;
51810;SDS011;52468;40.116;18.296;2022-09-09T14:01:47;18.48;;;5.30;;
51810;SDS011;52468;40.116;18.296;2022-09-09T14:04:16;15.40;;;6.05;;
51810;SDS011;52468;40.116;18.296;2022-09-09T14:06:44;19.35;;;5.72;;
51810;SDS011;52468;40.116;18.296;2022-09-09T14:09:13;12.02;;;5.00;;
51810;SDS011;52468;40.116;18.296;2022-09-09T14:11:43;15.25;;;5.03;;
51810;SDS011;52468;40.116;18.296;2022-09-09T14:14:12;17.33;;;5.22;;
51810;SDS011;52468;40.116;18.296;2022-09-09T14:16:40;10.27;;;5.07;;
51810;SDS011;52468;40.116;18.296;2022-09-09T14:19:08;13.02;;;5.30;;
51810;SDS011;52468;40.116;18.296;2022-09-09T14:21:36;19.20;;;6.07;;
51810;SDS011;52468;40.116;18.296;2022-09-09T14:24:04;13.93;;;5.18;;
51810;SDS011;52468;40.116;18.296;2022-09-09T14:26:33;18.45;;;5.88;;
51810;SDS011;52468;40.116;18.296;2022-09-09T14:29:01;14.95;;;4.97;;
51810;SDS011;52468;40.116;18.296;2022-09-09T14:31:29;19.02;;;5.47;;
51810;SDS011;52468;40.116;18.296;2022-09-09T14:33:57;19.58;;;5.75;;
51810;SDS011;52468;40.116;18.296;2022-09-09T14:36:26;13.18;;;5.93;;
51810;SDS011;52468;40.116;18.296;2022-09-09T14:38:54;13.00;;;5.47;;
51810;SDS011;52468;40.116;18.296;2022-09-09T14:41:21;18.67;;;5.28;;
51810;SDS011;52468;40.116;18.296;2022-09-09T14:43:50;12.50;;;5.25;;
51810;SDS011;52468;40.116;18.296;2022-09-09T14:46:21;20.63;;;5.43;;
51810;SDS011;52468;40.116;18.296;2022-09-09T14:48:49;13.45;;;5.15;;
51810;SDS011;52468;40.116;18.296;2022-09-09T14:51:18;14.52;;;6.47;;
51810;SDS011;52468;40.116;18.296;2022-09-09T14:53:51;17.45;;;6.35;;
51810;SDS011;52468;40.116;18.296;2022-09-09T14:56:23;13.13;;;5.47;;
51810;SDS011;52468;40.116;18.296;2022-09-09T14:58:54;21.00;;;5.47;;
51810;SDS011;52468;40.116;18.296;2022-09-09T15:01:23;11.88;;;4.82;;
51810;SDS011;52468;40.116;18.296;2022-09-09T15:03:55;10.93;;;5.47;;
51810;SDS011;52468;40.116;18.296;2022-09-09T15:06:26;23.70;;;6.30;;
51810;SDS011;52468;40.116;18.296;2022-09-09T15:08:56;20.67;;;6.35;;
51810;SDS011;52468;40.116;18.296;2022-09-09T15:11:27;19.30;;;6.80;;
51810;SDS011;52468;40.116;18.296;2022-09-09T15:14:00;17.48;;;5.40;;
51810;SDS011;52468;40.116;18.296;2022-09-09T15:16:28;22.25;;;7.15;;
51810;SDS011;52468;40.116;18.296;2022-09-09T15:18:56;20.00;;;5.55;;
51810;SDS011;52468;40.116;18.296;2022-09-09T15:21:27;14.52;;;5.85;;
51810;SDS011;52468;40.116;18.296;2022-09-09T15:23:57;12.10;;;4.68;;
51810;SDS011;52468;40.116;18.296;2022-09-09T15:26:26;17.08;;;5.30;;
51810;SDS011;52468;40.116;18.296;2022-09-09T15:28:54;14.70;;;6.15;;
51810;SDS011;52468;40.116;18.296;2022-09-09T15:31:23;20.50;;;6.82;;
51810;SDS011;52468;40.116;18.296;2022-09-09T15:33:57;12.68;;;5.63;;
51810;SDS011;52468;40.116;18.296;2022-09-09T15:36:40;13.77;;;4.75;;
51810;SDS011;52468;40.116;18.296;2022-09-09T15:39:11;16.33;;;5.03;;
51810;SDS011;52468;40.116;18.296;2022-09-09T15:41:40;13.10;;;4.47;;
51810;SDS011;52468;40.116;18.296;2022-09-09T15:44:09;13.43;;;5.47;;
51810;SDS011;52468;40.116;18.296;2022-09-09T15:46:40;20.85;;;6.07;;
51810;SDS011;52468;40.116;18.296;2022-09-09T15:49:15;14.35;;;5.20;;
51810;SDS011;52468;40.116;18.296;2022-09-09T15:51:45;17.00;;;5.63;;
51810;SDS011;52468;40.116;18.296;2022-09-09T15:54:15;15.70;;;5.05;;
51810;SDS011;52468;40.116;18.296;2022-09-09T15:56:45;15.43;;;5.03;;
51810;SDS011;52468;40.116;18.296;2022-09-09T15:59:17;15.00;;;5.32;;
51810;SDS011;52468;40.116;18.296;2022-09-09T16:01:45;23.17;;;5.95;;
51810;SDS011;52468;40.116;18.296;2022-09-09T16:04:13;19.85;;;8.20;;
51810;SDS011;52468;40.116;18.296;2022-09-09T16:06:42;24.83;;;6.40;;
51810;SDS011;52468;40.116;18.296;2022-09-09T16:09:10;16.38;;;6.82;;
51810;SDS011;52468;40.116;18.296;2022-09-09T16:11:38;15.65;;;7.22;;
51810;SDS011;52468;40.116;18.296;2022-09-09T16:14:06;18.33;;;7.43;;
51810;SDS011;52468;40.116;18.296;2022-09-09T16:16:34;15.63;;;7.82;;
51810;SDS011;52468;40.116;18.296;2022-09-09T16:19:06;17.25;;;7.45;;
51810;SDS011;52468;40.116;18.296;2022-09-09T16:21:39;21.65;;;8.40;;
51810;SDS011;52468;40.116;18.296;2022-09-09T16:24:09;23.50;;;7.75;;
51810;SDS011;52468;40.116;18.296;2022-09-09T16:26:42;15.68;;;8.02;;
51810;SDS011;52468;40.116;18.296;2022-09-09T16:31:41;24.05;;;8.18;;
51810;SDS011;52468;40.116;18.296;2022-09-09T16:34:09;19.92;;;7.78;;
51810;SDS011;52468;40.116;18.296;2022-09-09T16:36:38;16.63;;;9.82;;
51810;SDS011;52468;40.116;18.296;2022-09-09T16:39:11;17.60;;;7.63;;
51810;SDS011;52468;40.116;18.296;2022-09-09T16:41:44;19.70;;;8.65;;
51810;SDS011;52468;40.116;18.296;2022-09-09T16:44:15;24.65;;;8.90;;
51810;SDS011;52468;40.116;18.296;2022-09-09T16:46:45;21.85;;;8.20;;
51810;SDS011;52468;40.116;18.296;2022-09-09T16:49:16;27.10;;;9.97;;
51810;SDS011;52468;40.116;18.296;2022-09-09T16:51:47;24.63;;;9.50;;
51810;SDS011;52468;40.116;18.296;2022-09-09T16:54:16;25.88;;;10.73;;
51810;SDS011;52468;40.116;18.296;2022-09-09T16:56:46;29.63;;;10.93;;
51810;SDS011;52468;40.116;18.296;2022-09-09T16:59:16;26.43;;;10.07;;
51810;SDS011;52468;40.116;18.296;2022-09-09T17:01:47;24.80;;;10.57;;
51810;SDS011;52468;40.116;18.296;2022-09-09T17:04:17;23.07;;;9.30;;
51810;SDS011;52468;40.116;18.296;2022-09-09T17:06:48;21.70;;;9.40;;
51810;SDS011;52468;40.116;18.296;2022-09-09T17:09:17;24.93;;;9.10;;
51810;SDS011;52468;40.116;18.296;2022-09-09T17:11:46;26.10;;;9.67;;
51810;SDS011;52468;40.116;18.296;2022-09-09T17:14:16;25.57;;;9.97;;
51810;SDS011;52468;40.116;18.296;2022-09-09T17:16:45;27.87;;;9.87;;
51810;SDS011;52468;40.116;18.296;2022-09-09T17:19:14;18.40;;;9.33;;
51810;SDS011;52468;40.116;18.296;2022-09-09T17:21:42;23.90;;;9.83;;
51810;SDS011;52468;40.116;18.296;2022-09-09T17:24:26;29.37;;;10.30;;
51810;SDS011;52468;40.116;18.296;2022-09-09T17:26:56;23.07;;;10.60;;
51810;SDS011;52468;40.116;18.296;2022-09-09T17:29:24;27.83;;;12.33;;